Time;durP1;ratioP1;P1;durP2;ratioP2;P2;SDS_P1;SDS_P2;PMS_P1;PMS_P2;Temp;Humidity;BMP_temperature;BMP_pressure;BME280_temperature;BME280_humidity;BME280_pressure;Samples;Min_cycle;Max_cycle;Signal;HPM_P1;HPM_P2
2023/03/18 00:01:39;;;;;;;11.88;7.95;;;;;;;;;;5119530;27;20166;-71
2023/03/18 00:04:06;;;;;;;14.50;9.18;;;;;;;;;;5101658;27;20500;-71
2023/03/18 00:06:34;;;;;;;15.23;10.07;;;;;;;;;;5102036;28;20132;-71
2023/03/18 00:09:01;;;;;;;16.23;9.23;;;;;;;;;;5102340;28;20127;-71
2023/03/18 00:11:27;;;;;;;16.40;8.88;;;;;;;;;;5101558;28;20512;-71
2023/03/18 00:13:54;;;;;;;13.32;8.98;;;;;;;;;;5101698;28;20056;-71
2023/03/18 00:16:22;;;;;;;20.73;9.55;;;;;;;;;;5101736;28;20056;-70
2023/03/18 00:18:48;;;;;;;12.15;9.10;;;;;;;;;;5111453;28;20052;-71
2023/03/18 00:21:15;;;;;;;14.52;9.73;;;;;;;;;;5121803;28;20515;-71
2023/03/18 00:23:42;;;;;;;14.73;9.95;;;;;;;;;;5109528;27;20071;-70
2023/03/18 00:26:09;;;;;;;15.68;9.60;;;;;;;;;;5102315;28;20056;-70
2023/03/18 00:28:38;;;;;;;17.25;9.85;;;;;;;;;;5117796;27;20630;-70
2023/03/18 00:31:07;;;;;;;14.32;10.13;;;;;;;;;;5103622;28;20048;-71
2023/03/18 00:33:35;;;;;;;12.95;9.82;;;;;;;;;;5101199;28;20102;-70
2023/03/18 00:36:02;;;;;;;16.13;10.95;;;;;;;;;;5099575;28;20040;-70
2023/03/18 00:38:29;;;;;;;17.20;11.27;;;;;;;;;;5100857;28;20087;-70
2023/03/18 00:41:10;;;;;;;16.05;10.90;;;;;;;;;;5101072;28;20519;-71
2023/03/18 00:43:53;;;;;;;14.82;11.10;;;;;;;;;;5115364;28;20080;-70
2023/03/18 00:46:24;;;;;;;15.95;11.32;;;;;;;;;;5119507;28;20052;-71
2023/03/18 00:48:52;;;;;;;18.67;11.10;;;;;;;;;;5119827;28;20662;-70
2023/03/18 00:51:19;;;;;;;19.15;10.30;;;;;;;;;;5119533;28;20055;-71
2023/03/18 00:53:50;;;;;;;15.88;10.63;;;;;;;;;;5121331;27;20047;-70
2023/03/18 00:56:18;;;;;;;17.58;11.35;;;;;;;;;;5120133;28;20129;-71
2023/03/18 00:58:45;;;;;;;15.75;10.88;;;;;;;;;;5118729;27;20545;-71
2023/03/18 01:01:12;;;;;;;21.75;11.80;;;;;;;;;;5120788;28;20044;-70
2023/03/18 01:03:42;;;;;;;24.88;11.70;;;;;;;;;;5120634;28;20197;-71
2023/03/18 01:06:10;;;;;;;12.13;10.63;;;;;;;;;;5116231;27;20130;-70
2023/03/18 01:08:37;;;;;;;15.48;10.57;;;;;;;;;;5121529;27;20520;-70
2023/03/18 01:11:03;;;;;;;12.90;10.88;;;;;;;;;;5120875;27;20048;-70
2023/03/18 01:13:30;;;;;;;15.35;11.68;;;;;;;;;;5121563;27;20067;-70
2023/03/18 01:15:57;;;;;;;15.38;11.02;;;;;;;;;;5124036;27;20041;-70
2023/03/18 01:18:23;;;;;;;17.98;11.35;;;;;;;;;;5123408;27;20122;-71
2023/03/18 01:20:50;;;;;;;14.68;10.43;;;;;;;;;;5121969;28;20079;-71
2023/03/18 01:23:20;;;;;;;15.50;10.70;;;;;;;;;;5113993;28;20126;-70
2023/03/18 01:25:46;;;;;;;17.52;10.80;;;;;;;;;;5104220;28;20084;-70
2023/03/18 01:28:17;;;;;;;16.65;11.05;;;;;;;;;;5103458;28;21090;-70
2023/03/18 01:30:43;;;;;;;17.30;11.30;;;;;;;;;;5104354;28;20594;-71
2023/03/18 01:33:11;;;;;;;13.95;10.50;;;;;;;;;;5103126;28;20055;-71
2023/03/18 01:35:37;;;;;;;15.93;11.57;;;;;;;;;;5103909;28;20048;-71
2023/03/18 01:38:04;;;;;;;15.75;10.77;;;;;;;;;;5102545;28;20049;-71
2023/03/18 01:40:33;;;;;;;13.50;10.35;;;;;;;;;;5102384;28;20075;-70
2023/03/18 01:43:11;;;;;;;13.57;10.10;;;;;;;;;;5103327;28;20098;-70
2023/03/18 01:45:39;;;;;;;16.92;10.88;;;;;;;;;;5102847;28;20059;-70
2023/03/18 01:48:09;;;;;;;17.80;11.85;;;;;;;;;;5102877;28;20049;-71
2023/03/18 01:50:36;;;;;;;15.73;11.57;;;;;;;;;;5104387;28;20051;-70
2023/03/18 01:53:05;;;;;;;17.70;11.35;;;;;;;;;;5102295;28;20049;-70
2023/03/18 01:55:33;;;;;;;16.42;11.90;;;;;;;;;;5102965;28;20084;-71
2023/03/18 01:58:01;;;;;;;16.13;11.35;;;;;;;;;;5106420;28;20037;-70
2023/03/18 02:00:28;;;;;;;17.70;11.27;;;;;;;;;;5102479;28;20052;-69
2023/03/18 02:02:56;;;;;;;16.58;11.25;;;;;;;;;;5102859;28;20094;-69
2023/03/18 02:05:25;;;;;;;16.42;11.45;;;;;;;;;;5102216;28;20048;-70
2023/03/18 02:07:51;;;;;;;18.00;11.18;;;;;;;;;;5102738;28;20128;-70
2023/03/18 02:10:25;;;;;;;16.63;11.55;;;;;;;;;;5101646;28;20052;-71
2023/03/18 02:12:59;;;;;;;17.83;11.88;;;;;;;;;;5103181;28;20099;-69
2023/03/18 02:15:34;;;;;;;21.05;11.55;;;;;;;;;;5102306;28;20431;-71
2023/03/18 02:18:04;;;;;;;20.33;12.25;;;;;;;;;;5100941;28;20498;-71
2023/03/18 02:20:37;;;;;;;17.60;12.50;;;;;;;;;;5116904;27;20052;-71
2023/03/18 02:23:08;;;;;;;16.73;12.32;;;;;;;;;;5111104;28;20535;-71
2023/03/18 02:25:48;;;;;;;18.48;12.48;;;;;;;;;;5102993;28;20049;-71
2023/03/18 02:28:17;;;;;;;19.08;12.52;;;;;;;;;;5101633;28;20538;-71
2023/03/18 02:30:49;;;;;;;18.30;12.95;;;;;;;;;;5101383;28;21047;-70
2023/03/18 02:33:18;;;;;;;16.70;12.77;;;;;;;;;;5102136;28;20105;-71
2023/03/18 02:35:45;;;;;;;18.90;14.15;;;;;;;;;;5103717;28;20980;-71
2023/03/18 02:38:12;;;;;;;25.77;13.02;;;;;;;;;;5101659;28;20124;-70
2023/03/18 02:40:40;;;;;;;21.98;13.98;;;;;;;;;;5101765;28;20055;-71
2023/03/18 02:43:21;;;;;;;16.92;13.93;;;;;;;;;;5101757;28;20131;-70
2023/03/18 02:45:53;;;;;;;21.38;13.85;;;;;;;;;;5104025;28;20056;-71
2023/03/18 02:48:22;;;;;;;16.90;14.98;;;;;;;;;;5102299;28;20052;-70
2023/03/18 02:50:49;;;;;;;19.30;13.77;;;;;;;;;;5101198;28;20511;-70
2023/03/18 02:53:16;;;;;;;16.65;13.65;;;;;;;;;;5102071;28;20504;-70
2023/03/18 02:55:43;;;;;;;22.85;14.63;;;;;;;;;;5101439;28;20048;-70
2023/03/18 02:58:10;;;;;;;19.23;14.00;;;;;;;;;;5100469;28;20048;-71
2023/03/18 03:00:37;;;;;;;20.42;14.32;;;;;;;;;;5101094;28;20140;-70
2023/03/18 03:03:04;;;;;;;22.52;14.48;;;;;;;;;;5101159;28;20052;-70
2023/03/18 03:05:32;;;;;;;22.80;14.00;;;;;;;;;;5106969;28;20119;-70
2023/03/18 03:07:59;;;;;;;17.45;13.38;;;;;;;;;;5100897;28;20049;-70
2023/03/18 03:10:27;;;;;;;21.33;14.48;;;;;;;;;;5101154;28;20048;-71
2023/03/18 03:12:55;;;;;;;18.27;14.07;;;;;;;;;;5100357;28;20091;-70
2023/03/18 03:15:21;;;;;;;23.02;14.93;;;;;;;;;;5101772;28;20522;-70
2023/03/18 03:17:53;;;;;;;19.48;14.60;;;;;;;;;;5084974;28;20044;-70
2023/03/18 03:20:20;;;;;;;24.15;15.68;;;;;;;;;;5101720;28;20071;-70
2023/03/18 03:22:46;;;;;;;17.27;15.25;;;;;;;;;;5117274;27;20048;-70
2023/03/18 03:25:15;;;;;;;18.85;15.20;;;;;;;;;;5122895;27;20094;-70
2023/03/18 03:27:42;;;;;;;18.63;15.02;;;;;;;;;;5120853;28;20052;-70
2023/03/18 03:30:10;;;;;;;24.40;15.90;;;;;;;;;;5122246;27;20114;-70
2023/03/18 03:32:36;;;;;;;19.75;15.13;;;;;;;;;;5121620;27;20071;-70
2023/03/18 03:35:04;;;;;;;23.63;15.90;;;;;;;;;;5121348;27;20102;-71
2023/03/18 03:37:30;;;;;;;21.02;15.30;;;;;;;;;;5122582;27;20052;-71
2023/03/18 03:39:57;;;;;;;20.80;15.60;;;;;;;;;;5121089;28;20053;-71
2023/03/18 03:42:23;;;;;;;23.73;15.95;;;;;;;;;;5122082;27;20040;-70
2023/03/18 03:44:50;;;;;;;21.08;16.20;;;;;;;;;;5122026;27;20552;-70
2023/03/18 03:47:16;;;;;;;22.35;16.80;;;;;;;;;;5121410;27;20895;-70
2023/03/18 03:49:43;;;;;;;21.77;15.98;;;;;;;;;;5119258;28;20044;-71
2023/03/18 03:52:09;;;;;;;21.33;16.00;;;;;;;;;;5120687;28;20059;-71
2023/03/18 03:54:40;;;;;;;22.25;16.02;;;;;;;;;;5120070;27;20048;-70
2023/03/18 03:57:07;;;;;;;26.15;16.27;;;;;;;;;;5120642;28;21419;-71
2023/03/18 03:59:34;;;;;;;23.83;15.93;;;;;;;;;;5122085;27;20060;-71
2023/03/18 04:02:23;;;;;;;22.67;15.07;;;;;;;;;;5121382;27;20055;-71
2023/03/18 04:04:50;;;;;;;26.40;15.68;;;;;;;;;;5121854;27;20040;-71
2023/03/18 04:07:23;;;;;;;20.80;14.90;;;;;;;;;;5119846;28;20056;-71
2023/03/18 04:09:50;;;;;;;23.42;14.75;;;;;;;;;;5119569;28;20074;-71
2023/03/18 04:12:18;;;;;;;18.65;14.63;;;;;;;;;;5122237;27;20079;-71
2023/03/18 04:14:51;;;;;;;22.42;14.13;;;;;;;;;;5120170;28;20044;-71
2023/03/18 04:17:19;;;;;;;19.13;14.30;;;;;;;;;;5108509;28;20469;-70
2023/03/18 04:19:46;;;;;;;21.65;14.88;;;;;;;;;;5115275;28;20098;-71
2023/03/18 04:22:14;;;;;;;20.15;14.15;;;;;;;;;;5111024;27;20044;-69
2023/03/18 04:24:41;;;;;;;20.85;15.05;;;;;;;;;;5105722;27;20047;-71
2023/03/18 04:27:07;;;;;;;18.10;14.55;;;;;;;;;;5101433;28;20056;-71
2023/03/18 04:29:34;;;;;;;15.95;13.68;;;;;;;;;;5099126;28;20072;-71
2023/03/18 04:32:01;;;;;;;26.90;14.75;;;;;;;;;;5099576;28;20053;-71
2023/03/18 04:34:28;;;;;;;19.35;14.63;;;;;;;;;;5083015;28;20048;-70
2023/03/18 04:36:54;;;;;;;21.92;14.20;;;;;;;;;;5100133;28;20051;-70
2023/03/18 04:39:23;;;;;;;19.25;14.65;;;;;;;;;;5116743;28;20504;-71
2023/03/18 04:41:49;;;;;;;25.75;14.55;;;;;;;;;;5099850;28;20601;-71
2023/03/18 04:44:16;;;;;;;21.38;14.70;;;;;;;;;;5098712;28;20048;-72
2023/03/18 04:46:50;;;;;;;22.35;14.73;;;;;;;;;;5103170;28;20052;-70
2023/03/18 04:49:16;;;;;;;23.73;16.92;;;;;;;;;;5099110;28;20842;-71
2023/03/18 04:51:43;;;;;;;22.77;15.70;;;;;;;;;;5114854;28;20048;-70
2023/03/18 04:54:19;;;;;;;20.20;14.48;;;;;;;;;;5120193;28;20060;-71
2023/03/18 04:56:47;;;;;;;25.52;15.82;;;;;;;;;;5119143;28;20557;-71
2023/03/18 04:59:14;;;;;;;24.30;17.08;;;;;;;;;;5118891;28;20076;-71
2023/03/18 05:01:40;;;;;;;23.50;16.63;;;;;;;;;;5119906;28;20055;-70
2023/03/18 05:04:07;;;;;;;23.65;16.77;;;;;;;;;;5119632;28;20466;-71
2023/03/18 05:06:41;;;;;;;26.83;15.55;;;;;;;;;;5118984;28;20056;-70
2023/03/18 05:09:12;;;;;;;21.85;15.85;;;;;;;;;;5119596;28;20098;-70
2023/03/18 05:11:39;;;;;;;26.48;16.38;;;;;;;;;;5120219;27;20056;-71
2023/03/18 05:14:24;;;;;;;27.35;16.33;;;;;;;;;;5118896;28;20056;-70
2023/03/18 05:16:50;;;;;;;24.10;17.15;;;;;;;;;;5114822;28;20080;-71
2023/03/18 05:19:18;;;;;;;27.13;16.90;;;;;;;;;;5098424;28;20110;-71
2023/03/18 05:21:52;;;;;;;22.25;16.95;;;;;;;;;;5116704;28;20097;-70
2023/03/18 05:24:19;;;;;;;25.27;15.77;;;;;;;;;;5119518;28;20037;-71
2023/03/18 05:26:45;;;;;;;22.58;16.45;;;;;;;;;;5120265;27;20054;-71
2023/03/18 05:29:13;;;;;;;26.10;17.42;;;;;;;;;;5119569;28;20052;-71
2023/03/18 05:31:52;;;;;;;23.13;15.68;;;;;;;;;;5109733;28;20537;-71
2023/03/18 05:34:19;;;;;;;24.40;17.63;;;;;;;;;;5098429;28;20051;-70
2023/03/18 05:36:47;;;;;;;31.17;19.73;;;;;;;;;;5105146;28;20040;-70
2023/03/18 05:39:14;;;;;;;27.25;17.40;;;;;;;;;;5098959;28;20107;-71
2023/03/18 05:41:41;;;;;;;23.95;17.20;;;;;;;;;;5099698;28;20090;-71
2023/03/18 05:44:11;;;;;;;30.70;17.23;;;;;;;;;;5099437;28;20053;-71
2023/03/18 05:46:40;;;;;;;25.90;16.73;;;;;;;;;;5098982;28;20132;-71
2023/03/18 05:49:11;;;;;;;27.58;17.20;;;;;;;;;;5101579;28;20044;-71
2023/03/18 05:52:02;;;;;;;26.33;16.67;;;;;;;;;;5098772;28;20419;-71
2023/03/18 05:54:37;;;;;;;23.95;17.10;;;;;;;;;;5132295;27;20538;-71
2023/03/18 05:57:04;;;;;;;24.33;17.52;;;;;;;;;;5098415;28;20053;-71
2023/03/18 05:59:31;;;;;;;25.92;17.73;;;;;;;;;;5099477;28;20052;-71
2023/03/18 06:01:59;;;;;;;27.05;18.50;;;;;;;;;;5112517;28;20515;-70
2023/03/18 06:04:26;;;;;;;33.65;17.40;;;;;;;;;;5116856;28;20053;-71
2023/03/18 06:06:53;;;;;;;21.90;17.33;;;;;;;;;;5115900;27;20074;-71
2023/03/18 06:09:21;;;;;;;29.02;16.83;;;;;;;;;;5121859;28;20048;-70
2023/03/18 06:11:48;;;;;;;21.80;17.60;;;;;;;;;;5122347;28;20048;-70
2023/03/18 06:14:14;;;;;;;28.80;17.98;;;;;;;;;;5112147;28;20119;-71
2023/03/18 06:16:41;;;;;;;28.80;18.40;;;;;;;;;;5119703;28;20048;-71
2023/03/18 06:19:09;;;;;;;20.85;17.33;;;;;;;;;;5135742;27;20075;-71
2023/03/18 06:21:37;;;;;;;27.80;18.48;;;;;;;;;;5107379;27;20053;-70
2023/03/18 06:24:03;;;;;;;34.00;18.30;;;;;;;;;;5121340;27;20561;-70
2023/03/18 06:26:32;;;;;;;24.25;17.25;;;;;;;;;;5116810;28;20057;-70
2023/03/18 06:28:59;;;;;;;26.63;17.85;;;;;;;;;;5100791;28;20051;-70
2023/03/18 06:31:26;;;;;;;29.70;18.02;;;;;;;;;;5101824;28;20135;-71
2023/03/18 06:33:53;;;;;;;31.20;17.92;;;;;;;;;;5125802;27;20078;-71
2023/03/18 06:36:21;;;;;;;23.25;16.58;;;;;;;;;;5121306;28;20431;-71
2023/03/18 06:38:49;;;;;;;25.77;17.65;;;;;;;;;;5122125;28;20139;-71
2023/03/18 06:41:16;;;;;;;24.50;16.42;;;;;;;;;;5122197;28;20550;-70
2023/03/18 06:44:04;;;;;;;26.33;17.73;;;;;;;;;;5121631;27;20631;-70
2023/03/18 06:46:30;;;;;;;24.30;17.17;;;;;;;;;;5121840;28;20048;-70
2023/03/18 06:48:59;;;;;;;22.65;16.10;;;;;;;;;;5121707;28;20125;-70
2023/03/18 06:51:29;;;;;;;27.90;18.55;;;;;;;;;;5121062;28;20051;-71
2023/03/18 06:53:56;;;;;;;28.23;16.65;;;;;;;;;;5107732;27;20059;-70
2023/03/18 06:56:24;;;;;;;26.48;16.25;;;;;;;;;;5121954;28;20193;-70
2023/03/18 06:59:04;;;;;;;23.23;15.25;;;;;;;;;;5120050;28;20080;-70
2023/03/18 07:01:31;;;;;;;27.38;16.13;;;;;;;;;;5121793;28;20527;-70
2023/03/18 07:03:59;;;;;;;23.95;16.80;;;;;;;;;;5121467;28;20084;-71
2023/03/18 07:06:28;;;;;;;21.67;16.60;;;;;;;;;;5121097;28;20061;-71
2023/03/18 07:08:56;;;;;;;27.15;16.35;;;;;;;;;;5112910;27;20049;-71
2023/03/18 07:11:24;;;;;;;27.92;16.58;;;;;;;;;;5108384;27;20048;-70
2023/03/18 07:13:52;;;;;;;28.20;15.45;;;;;;;;;;5100045;28;20455;-70
2023/03/18 07:16:29;;;;;;;23.92;16.48;;;;;;;;;;5100928;28;20048;-71
2023/03/18 07:18:57;;;;;;;24.83;16.75;;;;;;;;;;5099952;28;20143;-70
2023/03/18 07:21:25;;;;;;;25.25;16.23;;;;;;;;;;5112518;28;20102;-70
2023/03/18 07:23:53;;;;;;;22.65;16.35;;;;;;;;;;5104216;28;20487;-70
2023/03/18 07:26:20;;;;;;;24.13;16.13;;;;;;;;;;5100034;28;20103;-70
2023/03/18 07:28:49;;;;;;;30.60;16.83;;;;;;;;;;5102638;28;20416;-70
2023/03/18 07:31:15;;;;;;;15.10;11.65;;;;;;;;;;5102183;28;20107;-70
2023/03/18 07:33:42;;;;;;;27.88;16.50;;;;;;;;;;5100231;28;20056;-70
2023/03/18 07:36:09;;;;;;;22.48;15.95;;;;;;;;;;5100433;28;20072;-70
2023/03/18 07:38:36;;;;;;;27.23;16.80;;;;;;;;;;5101789;28;20045;-71
2023/03/18 07:41:02;;;;;;;26.83;17.80;;;;;;;;;;5101077;28;20134;-70
2023/03/18 07:43:28;;;;;;;23.25;17.17;;;;;;;;;;5101652;28;20499;-70
2023/03/18 07:45:55;;;;;;;28.70;17.10;;;;;;;;;;5101434;28;20040;-70
2023/03/18 07:48:21;;;;;;;22.15;16.00;;;;;;;;;;5116670;28;20054;-70
2023/03/18 07:50:47;;;;;;;25.88;16.83;;;;;;;;;;5122181;27;20048;-70
2023/03/18 07:53:14;;;;;;;20.17;16.48;;;;;;;;;;5122141;27;20591;-70
2023/03/18 07:55:43;;;;;;;25.35;17.27;;;;;;;;;;5121532;27;20048;-70
2023/03/18 07:58:09;;;;;;;23.38;17.00;;;;;;;;;;5106262;27;20522;-70
2023/03/18 08:00:36;;;;;;;26.90;18.30;;;;;;;;;;5100738;28;20143;-70
2023/03/18 08:03:03;;;;;;;31.05;18.67;;;;;;;;;;5101341;28;20055;-70
2023/03/18 08:05:30;;;;;;;29.02;18.40;;;;;;;;;;5101450;28;20087;-70
2023/03/18 08:07:57;;;;;;;28.25;18.13;;;;;;;;;;5100302;28;20114;-70
2023/03/18 08:10:24;;;;;;;29.80;21.90;;;;;;;;;;5101459;28;20080;-70
2023/03/18 08:12:50;;;;;;;27.52;19.67;;;;;;;;;;5101043;28;20432;-70
2023/03/18 08:15:20;;;;;;;28.35;19.75;;;;;;;;;;5100702;28;20139;-70
2023/03/18 08:17:47;;;;;;;26.15;20.02;;;;;;;;;;5104718;28;20591;-70
2023/03/18 08:20:14;;;;;;;27.42;21.42;;;;;;;;;;5101166;28;20055;-70
2023/03/18 08:22:40;;;;;;;30.00;19.85;;;;;;;;;;5099836;28;20045;-70
2023/03/18 08:25:07;;;;;;;16.98;14.63;;;;;;;;;;5100648;28;20068;-70
2023/03/18 08:27:33;;;;;;;24.13;19.20;;;;;;;;;;5101067;28;20059;-70
2023/03/18 08:30:00;;;;;;;27.52;18.40;;;;;;;;;;5100067;28;20058;-69
2023/03/18 08:32:29;;;;;;;23.83;18.38;;;;;;;;;;5101120;28;20048;-69
2023/03/18 08:34:56;;;;;;;27.85;17.38;;;;;;;;;;5100664;28;20040;-69
2023/03/18 08:37:23;;;;;;;23.98;16.73;;;;;;;;;;5113572;27;20052;-69
2023/03/18 08:39:49;;;;;;;17.73;15.75;;;;;;;;;;5121207;27;20590;-69
2023/03/18 08:42:16;;;;;;;17.73;15.32;;;;;;;;;;5121510;27;20092;-70
2023/03/18 08:44:42;;;;;;;19.77;14.85;;;;;;;;;;5121032;27;20048;-69
2023/03/18 08:47:09;;;;;;;20.52;15.07;;;;;;;;;;5119124;28;20527;-69
2023/03/18 08:49:35;;;;;;;16.60;14.05;;;;;;;;;;5120552;27;20082;-69
2023/03/18 08:52:03;;;;;;;16.13;14.48;;;;;;;;;;5120951;28;20512;-69
2023/03/18 08:54:30;;;;;;;14.73;12.88;;;;;;;;;;5112501;28;20109;-69
2023/03/18 08:56:59;;;;;;;17.45;12.73;;;;;;;;;;5099783;28;20886;-69
2023/03/18 08:59:27;;;;;;;19.92;13.18;;;;;;;;;;5100522;28;20142;-69
2023/03/18 09:01:53;;;;;;;17.30;12.75;;;;;;;;;;5109429;28;20052;-69
2023/03/18 09:04:20;;;;;;;15.68;12.80;;;;;;;;;;5120363;28;20052;-69
2023/03/18 09:06:47;;;;;;;16.38;11.82;;;;;;;;;;5120750;27;20052;-69
2023/03/18 09:09:14;;;;;;;12.85;11.10;;;;;;;;;;5121050;27;20592;-69
2023/03/18 09:11:40;;;;;;;13.27;11.98;;;;;;;;;;5120225;27;20052;-70
2023/03/18 09:14:07;;;;;;;20.95;12.27;;;;;;;;;;5110404;28;20105;-69
2023/03/18 09:16:34;;;;;;;16.33;12.02;;;;;;;;;;5118456;27;20146;-69
2023/03/18 09:19:01;;;;;;;15.70;11.05;;;;;;;;;;5120041;27;20500;-70
2023/03/18 09:21:27;;;;;;;15.13;11.55;;;;;;;;;;5121019;27;20107;-69
2023/03/18 09:23:53;;;;;;;11.93;10.70;;;;;;;;;;5119283;27;20102;-69
2023/03/18 09:26:20;;;;;;;21.63;13.38;;;;;;;;;;5119481;27;20051;-70
2023/03/18 09:28:47;;;;;;;15.68;13.55;;;;;;;;;;5118218;27;20499;-70
2023/03/18 09:31:14;;;;;;;19.88;13.65;;;;;;;;;;5112840;28;20564;-69
2023/03/18 09:33:41;;;;;;;16.48;14.65;;;;;;;;;;5107185;27;20109;-69
2023/03/18 09:36:08;;;;;;;18.63;15.05;;;;;;;;;;5123731;27;20129;-69
2023/03/18 09:38:35;;;;;;;16.15;12.48;;;;;;;;;;5111400;27;20052;-69
2023/03/18 09:41:20;;;;;;;15.73;13.63;;;;;;;;;;5102885;28;20086;-69
2023/03/18 09:44:02;;;;;;;16.67;14.40;;;;;;;;;;5103566;28;20052;-69
2023/03/18 09:46:36;;;;;;;15.98;13.90;;;;;;;;;;5122463;28;20052;-69
2023/03/18 09:49:15;;;;;;;20.15;13.85;;;;;;;;;;5123908;27;20074;-69
2023/03/18 09:51:49;;;;;;;21.65;14.20;;;;;;;;;;5124018;27;20058;-69
2023/03/18 09:54:19;;;;;;;21.75;13.32;;;;;;;;;;5118927;27;20136;-69
2023/03/18 09:56:46;;;;;;;16.73;12.82;;;;;;;;;;5124138;27;20052;-69
2023/03/18 09:59:15;;;;;;;18.48;13.52;;;;;;;;;;5123951;27;20225;-69
2023/03/18 10:01:43;;;;;;;13.77;12.27;;;;;;;;;;5123456;27;20089;-69
2023/03/18 10:04:21;;;;;;;15.55;13.35;;;;;;;;;;5123574;27;20105;-69
2023/03/18 10:06:49;;;;;;;17.92;13.52;;;;;;;;;;5123775;27;20076;-69
2023/03/18 10:09:19;;;;;;;16.48;11.60;;;;;;;;;;5123160;27;20056;-69
2023/03/18 10:11:47;;;;;;;13.32;11.70;;;;;;;;;;5123989;27;20101;-69
2023/03/18 10:14:19;;;;;;;12.88;11.55;;;;;;;;;;5123132;27;20407;-69
2023/03/18 10:17:04;;;;;;;13.00;11.70;;;;;;;;;;5124057;27;20052;-69
2023/03/18 10:19:32;;;;;;;17.75;11.10;;;;;;;;;;5123602;27;20083;-69
2023/03/18 10:22:17;;;;;;;15.77;11.13;;;;;;;;;;5122586;27;20442;-69
2023/03/18 10:24:53;;;;;;;12.95;10.98;;;;;;;;;;5122381;27;20091;-69
2023/03/18 10:27:46;;;;;;;12.07;10.77;;;;;;;;;;5113754;28;20105;-69
2023/03/18 10:30:31;;;;;;;10.73;9.00;;;;;;;;;;5088999;27;20052;-69
2023/03/18 10:33:02;;;;;;;11.85;9.32;;;;;;;;;;5113854;28;20155;-69
2023/03/18 10:35:35;;;;;;;9.10;8.20;;;;;;;;;;5122775;27;20117;-69
2023/03/18 10:38:03;;;;;;;9.88;8.10;;;;;;;;;;5123052;28;20140;-69
2023/03/18 10:40:40;;;;;;;13.95;7.95;;;;;;;;;;5123409;27;20475;-69
2023/03/18 10:43:14;;;;;;;12.70;9.68;;;;;;;;;;5122519;27;20129;-69
2023/03/18 10:45:41;;;;;;;12.63;9.52;;;;;;;;;;5122763;27;20101;-69
2023/03/18 10:48:13;;;;;;;12.25;9.55;;;;;;;;;;5122587;27;20409;-69
2023/03/18 10:50:54;;;;;;;10.73;7.28;;;;;;;;;;5122785;27;20093;-69
2023/03/18 10:53:34;;;;;;;9.63;8.05;;;;;;;;;;5121125;27;20052;-69
2023/03/18 10:56:00;;;;;;;12.27;7.65;;;;;;;;;;5118720;28;20047;-69
2023/03/18 10:58:47;;;;;;;9.85;8.73;;;;;;;;;;5122270;28;20051;-69
2023/03/18 11:01:15;;;;;;;8.00;7.15;;;;;;;;;;5122597;27;20056;-70
2023/03/18 11:03:50;;;;;;;13.32;6.85;;;;;;;;;;5122680;27;20062;-70
2023/03/18 11:06:18;;;;;;;7.05;5.93;;;;;;;;;;5122924;27;20105;-70
2023/03/18 11:08:46;;;;;;;7.70;5.78;;;;;;;;;;5123112;27;20539;-70
2023/03/18 11:11:27;;;;;;;7.95;5.65;;;;;;;;;;5121823;27;20055;-70
2023/03/18 11:13:56;;;;;;;11.90;6.03;;;;;;;;;;5122959;27;20063;-70
2023/03/18 11:16:31;;;;;;;6.97;6.28;;;;;;;;;;5118877;27;20060;-70
2023/03/18 11:19:08;;;;;;;8.00;6.00;;;;;;;;;;5102030;28;20057;-70
2023/03/18 11:21:37;;;;;;;7.20;5.03;;;;;;;;;;5113300;28;20036;-70
2023/03/18 11:24:33;;;;;;;6.40;5.80;;;;;;;;;;5124652;28;20052;-70
2023/03/18 11:27:01;;;;;;;8.05;5.32;;;;;;;;;;5106855;28;20056;-70
2023/03/18 11:29:31;;;;;;;6.15;5.50;;;;;;;;;;5102361;28;20561;-70
2023/03/18 11:31:59;;;;;;;8.50;5.55;;;;;;;;;;5101054;28;20053;-70
2023/03/18 11:34:31;;;;;;;11.90;5.70;;;;;;;;;;5102353;28;20049;-70
2023/03/18 11:37:00;;;;;;;6.68;5.32;;;;;;;;;;5111570;28;20048;-70
2023/03/18 11:39:29;;;;;;;8.60;6.05;;;;;;;;;;5121583;27;20052;-70
2023/03/18 11:41:58;;;;;;;5.97;5.45;;;;;;;;;;5122091;27;20040;-70
2023/03/18 11:44:32;;;;;;;9.98;5.50;;;;;;;;;;5121938;27;20120;-69
2023/03/18 11:47:09;;;;;;;7.35;5.32;;;;;;;;;;5121228;27;20051;-71
2023/03/18 11:49:36;;;;;;;13.50;6.00;;;;;;;;;;5122438;27;20860;-70
2023/03/18 11:52:22;;;;;;;7.82;5.60;;;;;;;;;;5119319;27;20584;-70
2023/03/18 11:55:01;;;;;;;6.93;5.22;;;;;;;;;;5106267;28;20135;-70
2023/03/18 11:57:46;;;;;;;8.32;5.10;;;;;;;;;;5101888;28;20055;-70
2023/03/18 12:00:24;;;;;;;11.07;5.78;;;;;;;;;;5101016;28;20563;-70
2023/03/18 12:03:10;;;;;;;5.90;4.95;;;;;;;;;;5101546;28;20103;-70
2023/03/18 12:05:55;;;;;;;9.93;5.35;;;;;;;;;;5101056;28;20095;-70
2023/03/18 12:08:23;;;;;;;10.80;5.47;;;;;;;;;;5100906;28;20165;-70
2023/03/18 12:11:05;;;;;;;8.45;5.20;;;;;;;;;;5101020;28;20508;-70
2023/03/18 12:13:42;;;;;;;10.68;5.43;;;;;;;;;;5106988;27;20109;-70
2023/03/18 12:16:13;;;;;;;8.13;5.20;;;;;;;;;;5121709;27;20048;-70
2023/03/18 12:19:07;;;;;;;9.68;5.72;;;;;;;;;;5121639;27;20051;-70
2023/03/18 12:21:34;;;;;;;;;;;;;;;;;;5097618;27;20083;-70
2023/03/18 12:24:03;;;;;;;12.07;4.53;;;;;;;;;;5120498;27;35425;-71
2023/03/18 12:26:39;;;;;;;5.82;4.80;;;;;;;;;;5115778;28;20055;-70
2023/03/18 12:29:29;;;;;;;9.23;5.10;;;;;;;;;;5118995;28;20127;-70
2023/03/18 12:32:05;;;;;;;5.30;4.80;;;;;;;;;;5121386;27;20048;-70
2023/03/18 12:34:54;;;;;;;8.48;5.20;;;;;;;;;;5101321;27;20056;-70
2023/03/18 12:37:37;;;;;;;7.97;4.88;;;;;;;;;;5072112;28;20054;-70
2023/03/18 12:40:25;;;;;;;9.23;5.20;;;;;;;;;;5121392;27;20050;-70
2023/03/18 12:43:11;;;;;;;5.35;4.80;;;;;;;;;;5120572;28;20130;-70
2023/03/18 12:45:42;;;;;;;4.93;4.25;;;;;;;;;;5121585;28;21110;-70
2023/03/18 12:48:13;;;;;;;7.93;4.43;;;;;;;;;;5121356;27;20133;-70
2023/03/18 12:50:47;;;;;;;8.45;4.18;;;;;;;;;;5116316;28;20048;-70
2023/03/18 12:53:21;;;;;;;6.80;3.60;;;;;;;;;;5121230;27;20051;-71
2023/03/18 12:55:51;;;;;;;5.93;3.63;;;;;;;;;;5120625;27;20056;-70
2023/03/18 12:58:22;;;;;;;7.47;4.57;;;;;;;;;;5121162;27;20056;-72
2023/03/18 13:00:55;;;;;;;5.63;4.37;;;;;;;;;;5121203;27;20048;-72
2023/03/18 13:03:31;;;;;;;9.20;5.30;;;;;;;;;;5120730;27;20328;-71
2023/03/18 13:06:09;;;;;;;5.60;4.78;;;;;;;;;;5120869;27;20584;-71
2023/03/18 13:08:54;;;;;;;8.05;4.68;;;;;;;;;;5120748;27;20051;-71
2023/03/18 13:11:29;;;;;;;7.45;4.43;;;;;;;;;;5120636;27;20589;-71
2023/03/18 13:13:59;;;;;;;6.45;4.25;;;;;;;;;;5120560;27;20082;-71
2023/03/18 13:16:26;;;;;;;10.25;4.40;;;;;;;;;;5121189;27;20044;-71
2023/03/18 13:18:54;;;;;;;5.78;3.53;;;;;;;;;;5107084;27;20045;-71
2023/03/18 13:21:23;;;;;;;3.92;3.10;;;;;;;;;;5121229;27;20063;-71
2023/03/18 13:24:08;;;;;;;5.70;3.38;;;;;;;;;;5110612;28;20171;-71
2023/03/18 13:26:42;;;;;;;5.28;3.35;;;;;;;;;;5114907;28;20048;-70
2023/03/18 13:29:38;;;;;;;4.25;3.85;;;;;;;;;;5112812;28;20048;-72
2023/03/18 13:32:11;;;;;;;7.55;4.28;;;;;;;;;;5105902;27;20118;-71
2023/03/18 13:34:47;;;;;;;9.70;4.45;;;;;;;;;;5117260;28;20048;-71
2023/03/18 13:37:32;;;;;;;8.52;5.40;;;;;;;;;;5113668;27;20083;-71
2023/03/18 13:40:08;;;;;;;9.23;5.97;;;;;;;;;;5116570;28;20056;-70
2023/03/18 13:42:36;;;;;;;13.15;6.03;;;;;;;;;;5120933;27;20536;-70
2023/03/18 13:45:05;;;;;;;12.35;6.50;;;;;;;;;;5119709;27;20135;-70
2023/03/18 13:47:33;;;;;;;10.32;6.88;;;;;;;;;;5111871;27;20052;-70
2023/03/18 13:50:02;;;;;;;8.95;5.72;;;;;;;;;;5111710;28;20060;-70
2023/03/18 13:52:34;;;;;;;10.00;5.40;;;;;;;;;;5101723;28;20049;-69
2023/03/18 13:55:03;;;;;;;9.60;6.50;;;;;;;;;;5120090;27;20071;-68
2023/03/18 13:57:34;;;;;;;11.25;5.35;;;;;;;;;;5120532;27;20414;-69
2023/03/18 14:00:30;;;;;;;8.45;5.05;;;;;;;;;;5119309;27;20063;-69
2023/03/18 14:03:22;;;;;;;19.05;5.05;;;;;;;;;;5115280;28;20078;-68
2023/03/18 14:05:50;;;;;;;9.65;4.80;;;;;;;;;;5091705;27;20078;-68
2023/03/18 14:08:32;;;;;;;9.60;5.40;;;;;;;;;;5119384;27;20052;-69
2023/03/18 14:11:21;;;;;;;16.83;4.63;;;;;;;;;;5120264;28;20052;-69
2023/03/18 14:13:49;;;;;;;10.18;4.70;;;;;;;;;;5119272;27;20417;-69
2023/03/18 14:16:19;;;;;;;15.27;4.38;;;;;;;;;;5120227;27;20048;-69
2023/03/18 14:18:56;;;;;;;7.70;3.85;;;;;;;;;;5120114;27;20052;-68
2023/03/18 14:21:27;;;;;;;6.68;3.97;;;;;;;;;;5120159;27;20051;-69
2023/03/18 14:24:03;;;;;;;7.60;4.28;;;;;;;;;;5123664;27;20500;-69
2023/03/18 14:26:33;;;;;;;12.57;4.35;;;;;;;;;;5123830;27;20527;-69
2023/03/18 14:29:05;;;;;;;8.30;3.90;;;;;;;;;;5122487;28;20044;-68
2023/03/18 14:31:33;;;;;;;8.02;4.45;;;;;;;;;;5122358;27;20052;-70
2023/03/18 14:34:19;;;;;;;6.13;3.55;;;;;;;;;;5121736;27;20059;-69
2023/03/18 14:36:52;;;;;;;6.82;3.40;;;;;;;;;;5115560;28;20052;-69
2023/03/18 14:39:23;;;;;;;8.55;4.35;;;;;;;;;;5120417;27;20185;-69
2023/03/18 14:41:52;;;;;;;7.65;3.08;;;;;;;;;;5108380;27;20048;-69
2023/03/18 14:44:30;;;;;;;8.50;3.90;;;;;;;;;;5123338;27;20050;-69